Main page
METAR-TAF:

METAR-TAF

Airports :

Badajoz, Spain

Badajoz Airport

latitude: 38-53N, longitude: 006-49W, elevation: 185 m

Current weather observation

The report was made 9 hours and 46 minutes ago, at 19:00 UTC
Wind 8 kt from the Southwest
Temperature 25°C
Humidity 54%
Pressure 1014 hPa
Visibility 10 km or more
no clouds below 1500 m and no cumulonimbus

METAR: LEBZ 261900Z 23008KT CAVOK 25/15 Q1014

Time: 06:46 (04:46 UTC)

Forecast

The report was made 5 hours and 46 minutes ago, at 23:00 UTC
Forecast valid from 27 at 00 UTC to 27 at 24 UTC
Wind 7 kt from the West
Visibility 10 km or more
no clouds below 1500 m and no cumulonimbus

TAF: LEBZ 262300Z 2700/2724 27007KT CAVOK TX24/2715Z TN11/2705Z

Weather observations and forecasts of more than 4000 airports (METAR and TAF reports).

The available stations are represented by yellow and red dots on the map.

Hover mouse over dot to see the name of the station.

Then click to see weather observations and forecasts.

To change the map : click on the green buttons with a black cross to zoom in, on the green button with a dash to zoom out, or on the green arrows for adjacent maps.


METAR-TAF: